sensor_id;sensor_type;location;lat;lon;timestamp;temperature;humidity
19435;DHT22;9853;50.848;4.108;2023-04-08T00:00:17;9.30;99.90
19435;DHT22;9853;50.848;4.108;2023-04-08T00:02:18;9.40;99.90
19435;DHT22;9853;50.848;4.108;2023-04-08T00:04:19;9.30;99.90
19435;DHT22;9853;50.848;4.108;2023-04-08T00:06:20;9.20;99.90
19435;DHT22;9853;50.848;4.108;2023-04-08T00:08:21;9.20;99.90
19435;DHT22;9853;50.848;4.108;2023-04-08T00:10:21;9.30;99.90
19435;DHT22;9853;50.848;4.108;2023-04-08T00:12:22;9.50;99.90
19435;DHT22;9853;50.848;4.108;2023-04-08T00:14:23;9.70;99.90
19435;DHT22;9853;50.848;4.108;2023-04-08T00:16:23;9.60;99.90
19435;DHT22;9853;50.848;4.108;2023-04-08T00:18:25;9.60;99.90
19435;DHT22;9853;50.848;4.108;2023-04-08T00:20:26;9.60;99.90
19435;DHT22;9853;50.848;4.108;2023-04-08T00:22:27;9.70;99.90
19435;DHT22;9853;50.848;4.108;2023-04-08T00:24:27;9.70;99.90
19435;DHT22;9853;50.848;4.108;2023-04-08T00:26:28;9.70;99.90
19435;DHT22;9853;50.848;4.108;2023-04-08T00:28:29;10.00;99.90
19435;DHT22;9853;50.848;4.108;2023-04-08T00:30:30;9.80;99.90
19435;DHT22;9853;50.848;4.108;2023-04-08T00:32:31;9.80;99.90
19435;DHT22;9853;50.848;4.108;2023-04-08T00:34:32;9.50;99.90
19435;DHT22;9853;50.848;4.108;2023-04-08T00:36:33;9.60;99.90
19435;DHT22;9853;50.848;4.108;2023-04-08T00:38:35;9.50;99.90
19435;DHT22;9853;50.848;4.108;2023-04-08T00:40:36;9.30;99.90
19435;DHT22;9853;50.848;4.108;2023-04-08T00:42:37;9.30;99.90
19435;DHT22;9853;50.848;4.108;2023-04-08T00:44:38;9.20;99.90
19435;DHT22;9853;50.848;4.108;2023-04-08T00:46:39;9.30;99.90
19435;DHT22;9853;50.848;4.108;2023-04-08T00:48:40;9.60;99.90
19435;DHT22;9853;50.848;4.108;2023-04-08T00:50:44;9.50;99.90
19435;DHT22;9853;50.848;4.108;2023-04-08T00:52:46;9.50;99.90
19435;DHT22;9853;50.848;4.108;2023-04-08T00:54:47;9.50;99.90
19435;DHT22;9853;50.848;4.108;2023-04-08T00:56:48;9.30;99.90
19435;DHT22;9853;50.848;4.108;2023-04-08T00:58:49;9.10;99.90
19435;DHT22;9853;50.848;4.108;2023-04-08T01:01:06;9.00;99.90
19435;DHT22;9853;50.848;4.108;2023-04-08T01:03:17;9.20;99.90
19435;DHT22;9853;50.848;4.108;2023-04-08T01:05:24;9.50;99.90
19435;DHT22;9853;50.848;4.108;2023-04-08T01:07:37;9.70;99.90
19435;DHT22;9853;50.848;4.108;2023-04-08T01:09:49;10.00;99.90
19435;DHT22;9853;50.848;4.108;2023-04-08T01:11:52;10.30;99.90
19435;DHT22;9853;50.848;4.108;2023-04-08T01:13:53;10.40;99.90
19435;DHT22;9853;50.848;4.108;2023-04-08T01:15:55;10.30;99.90
19435;DHT22;9853;50.848;4.108;2023-04-08T01:17:56;10.10;99.90
19435;DHT22;9853;50.848;4.108;2023-04-08T01:19:59;10.00;99.90
19435;DHT22;9853;50.848;4.108;2023-04-08T01:22:11;9.70;99.90
19435;DHT22;9853;50.848;4.108;2023-04-08T01:24:23;9.90;99.90
19435;DHT22;9853;50.848;4.108;2023-04-08T01:26:26;10.20;99.90
19435;DHT22;9853;50.848;4.108;2023-04-08T01:28:29;10.00;99.90
19435;DHT22;9853;50.848;4.108;2023-04-08T01:30:33;10.10;99.90
19435;DHT22;9853;50.848;4.108;2023-04-08T01:32:35;10.10;99.90
19435;DHT22;9853;50.848;4.108;2023-04-08T01:34:39;10.20;99.90
19435;DHT22;9853;50.848;4.108;2023-04-08T01:36:43;10.10;99.90
19435;DHT22;9853;50.848;4.108;2023-04-08T01:38:47;10.20;99.90
19435;DHT22;9853;50.848;4.108;2023-04-08T01:40:50;10.10;99.90
19435;DHT22;9853;50.848;4.108;2023-04-08T01:42:54;10.20;99.90
19435;DHT22;9853;50.848;4.108;2023-04-08T01:44:58;10.20;99.90
19435;DHT22;9853;50.848;4.108;2023-04-08T01:47:00;10.10;99.90
19435;DHT22;9853;50.848;4.108;2023-04-08T01:49:04;10.20;99.90
19435;DHT22;9853;50.848;4.108;2023-04-08T01:51:06;10.20;99.90
19435;DHT22;9853;50.848;4.108;2023-04-08T01:53:10;10.20;99.90
19435;DHT22;9853;50.848;4.108;2023-04-08T01:55:12;10.20;99.90
19435;DHT22;9853;50.848;4.108;2023-04-08T01:57:23;10.20;99.90
19435;DHT22;9853;50.848;4.108;2023-04-08T01:59:30;10.20;99.90
19435;DHT22;9853;50.848;4.108;2023-04-08T02:01:32;10.30;99.90
19435;DHT22;9853;50.848;4.108;2023-04-08T02:03:35;10.30;99.90
19435;DHT22;9853;50.848;4.108;2023-04-08T02:05:37;10.40;99.90
19435;DHT22;9853;50.848;4.108;2023-04-08T02:07:38;10.40;99.90
19435;DHT22;9853;50.848;4.108;2023-04-08T02:09:39;10.30;99.90
19435;DHT22;9853;50.848;4.108;2023-04-08T02:11:40;10.30;99.90
19435;DHT22;9853;50.848;4.108;2023-04-08T02:13:41;10.40;99.90
19435;DHT22;9853;50.848;4.108;2023-04-08T02:15:45;10.40;99.90
19435;DHT22;9853;50.848;4.108;2023-04-08T02:17:52;10.20;99.90
19435;DHT22;9853;50.848;4.108;2023-04-08T02:20:07;10.20;99.90
19435;DHT22;9853;50.848;4.108;2023-04-08T02:22:22;10.20;99.90
19435;DHT22;9853;50.848;4.108;2023-04-08T02:24:26;10.10;99.90
19435;DHT22;9853;50.848;4.108;2023-04-08T02:26:27;10.10;99.90
19435;DHT22;9853;50.848;4.108;2023-04-08T02:28:51;9.90;99.90
19435;DHT22;9853;50.848;4.108;2023-04-08T02:30:56;9.80;99.90
19435;DHT22;9853;50.848;4.108;2023-04-08T02:32:58;9.80;99.90
19435;DHT22;9853;50.848;4.108;2023-04-08T02:35:01;9.70;99.90
19435;DHT22;9853;50.848;4.108;2023-04-08T02:37:03;9.70;99.90
19435;DHT22;9853;50.848;4.108;2023-04-08T02:39:04;9.70;99.90
19435;DHT22;9853;50.848;4.108;2023-04-08T02:41:05;9.70;99.90
19435;DHT22;9853;50.848;4.108;2023-04-08T02:43:05;9.80;99.90
19435;DHT22;9853;50.848;4.108;2023-04-08T02:45:07;9.90;99.90
19435;DHT22;9853;50.848;4.108;2023-04-08T02:47:08;10.00;99.90
19435;DHT22;9853;50.848;4.108;2023-04-08T02:49:09;10.10;99.90
19435;DHT22;9853;50.848;4.108;2023-04-08T02:51:10;10.10;99.90
19435;DHT22;9853;50.848;4.108;2023-04-08T02:53:11;10.20;99.90
19435;DHT22;9853;50.848;4.108;2023-04-08T02:55:12;10.10;99.90
19435;DHT22;9853;50.848;4.108;2023-04-08T02:57:13;10.10;99.90
19435;DHT22;9853;50.848;4.108;2023-04-08T02:59:13;10.20;99.90
19435;DHT22;9853;50.848;4.108;2023-04-08T03:01:14;10.20;99.90
19435;DHT22;9853;50.848;4.108;2023-04-08T03:03:15;10.10;99.90
19435;DHT22;9853;50.848;4.108;2023-04-08T03:05:16;10.20;99.90
19435;DHT22;9853;50.848;4.108;2023-04-08T03:07:17;10.10;99.90
19435;DHT22;9853;50.848;4.108;2023-04-08T03:09:18;9.70;99.90
19435;DHT22;9853;50.848;4.108;2023-04-08T03:11:19;9.60;99.90
19435;DHT22;9853;50.848;4.108;2023-04-08T03:13:20;9.50;99.90
19435;DHT22;9853;50.848;4.108;2023-04-08T03:15:21;9.40;99.90
19435;DHT22;9853;50.848;4.108;2023-04-08T03:17:22;9.50;99.90
19435;DHT22;9853;50.848;4.108;2023-04-08T03:19:23;9.60;99.90
19435;DHT22;9853;50.848;4.108;2023-04-08T03:21:24;9.60;99.90
19435;DHT22;9853;50.848;4.108;2023-04-08T03:23:24;9.30;99.90
19435;DHT22;9853;50.848;4.108;2023-04-08T03:25:25;9.20;99.90
19435;DHT22;9853;50.848;4.108;2023-04-08T03:27:26;9.10;99.90
19435;DHT22;9853;50.848;4.108;2023-04-08T03:29:28;9.20;99.90
19435;DHT22;9853;50.848;4.108;2023-04-08T03:31:28;9.30;99.90
19435;DHT22;9853;50.848;4.108;2023-04-08T03:33:29;9.20;99.90
19435;DHT22;9853;50.848;4.108;2023-04-08T03:35:30;9.10;99.90
19435;DHT22;9853;50.848;4.108;2023-04-08T03:37:32;8.90;99.90
19435;DHT22;9853;50.848;4.108;2023-04-08T03:39:33;9.10;99.90
19435;DHT22;9853;50.848;4.108;2023-04-08T03:41:33;9.20;99.90
19435;DHT22;9853;50.848;4.108;2023-04-08T03:43:34;9.20;99.90
19435;DHT22;9853;50.848;4.108;2023-04-08T03:45:35;9.10;99.90
19435;DHT22;9853;50.848;4.108;2023-04-08T03:47:35;9.30;99.90
19435;DHT22;9853;50.848;4.108;2023-04-08T03:49:36;9.40;99.90
19435;DHT22;9853;50.848;4.108;2023-04-08T03:51:37;9.40;99.90
19435;DHT22;9853;50.848;4.108;2023-04-08T03:53:38;9.40;99.90
19435;DHT22;9853;50.848;4.108;2023-04-08T03:55:39;9.30;99.90
19435;DHT22;9853;50.848;4.108;2023-04-08T03:57:39;9.30;99.90
19435;DHT22;9853;50.848;4.108;2023-04-08T03:59:40;9.40;99.90
19435;DHT22;9853;50.848;4.108;2023-04-08T04:01:41;9.40;99.90
19435;DHT22;9853;50.848;4.108;2023-04-08T04:03:42;9.30;99.90
19435;DHT22;9853;50.848;4.108;2023-04-08T04:05:42;9.20;99.90
19435;DHT22;9853;50.848;4.108;2023-04-08T04:07:43;9.20;99.90
19435;DHT22;9853;50.848;4.108;2023-04-08T04:09:44;9.30;99.90
19435;DHT22;9853;50.848;4.108;2023-04-08T04:11:45;9.30;99.90
19435;DHT22;9853;50.848;4.108;2023-04-08T04:13:46;9.40;99.90
19435;DHT22;9853;50.848;4.108;2023-04-08T04:15:47;9.50;99.90
19435;DHT22;9853;50.848;4.108;2023-04-08T04:17:48;9.60;99.90
19435;DHT22;9853;50.848;4.108;2023-04-08T04:19:50;9.70;99.90
19435;DHT22;9853;50.848;4.108;2023-04-08T04:21:50;9.70;99.90
19435;DHT22;9853;50.848;4.108;2023-04-08T04:23:51;9.70;99.90
19435;DHT22;9853;50.848;4.108;2023-04-08T04:25:52;9.70;99.90
19435;DHT22;9853;50.848;4.108;2023-04-08T04:27:53;9.80;99.90
19435;DHT22;9853;50.848;4.108;2023-04-08T04:29:53;9.90;99.90
19435;DHT22;9853;50.848;4.108;2023-04-08T04:31:54;9.90;99.90
19435;DHT22;9853;50.848;4.108;2023-04-08T04:33:55;10.00;99.90
19435;DHT22;9853;50.848;4.108;2023-04-08T04:35:56;9.90;99.90
19435;DHT22;9853;50.848;4.108;2023-04-08T04:37:57;10.00;99.90
19435;DHT22;9853;50.848;4.108;2023-04-08T04:39:58;9.90;99.90
19435;DHT22;9853;50.848;4.108;2023-04-08T04:41:59;9.80;99.90
19435;DHT22;9853;50.848;4.108;2023-04-08T04:44:00;9.70;99.90
19435;DHT22;9853;50.848;4.108;2023-04-08T04:46:01;9.70;99.90
19435;DHT22;9853;50.848;4.108;2023-04-08T04:48:03;9.60;99.90
19435;DHT22;9853;50.848;4.108;2023-04-08T04:50:05;9.60;99.90
19435;DHT22;9853;50.848;4.108;2023-04-08T04:52:06;9.60;99.90
19435;DHT22;9853;50.848;4.108;2023-04-08T04:54:07;9.60;99.90
19435;DHT22;9853;50.848;4.108;2023-04-08T04:56:07;9.60;99.90
19435;DHT22;9853;50.848;4.108;2023-04-08T04:58:08;9.70;99.90
19435;DHT22;9853;50.848;4.108;2023-04-08T05:00:09;9.70;99.90
19435;DHT22;9853;50.848;4.108;2023-04-08T05:02:10;9.70;99.90
19435;DHT22;9853;50.848;4.108;2023-04-08T05:04:11;9.60;99.90
19435;DHT22;9853;50.848;4.108;2023-04-08T05:06:11;9.80;99.90
19435;DHT22;9853;50.848;4.108;2023-04-08T05:08:12;9.90;99.90
19435;DHT22;9853;50.848;4.108;2023-04-08T05:10:13;9.90;99.90
19435;DHT22;9853;50.848;4.108;2023-04-08T05:12:13;9.90;99.90
19435;DHT22;9853;50.848;4.108;2023-04-08T05:14:14;9.90;99.90
19435;DHT22;9853;50.848;4.108;2023-04-08T05:16:15;10.00;99.90
19435;DHT22;9853;50.848;4.108;2023-04-08T05:18:16;10.00;99.90
19435;DHT22;9853;50.848;4.108;2023-04-08T05:20:17;10.10;99.90
19435;DHT22;9853;50.848;4.108;2023-04-08T05:22:18;10.10;99.90
19435;DHT22;9853;50.848;4.108;2023-04-08T05:24:18;10.10;99.90
19435;DHT22;9853;50.848;4.108;2023-04-08T05:26:19;10.10;99.90
19435;DHT22;9853;50.848;4.108;2023-04-08T05:28:21;10.00;99.90
19435;DHT22;9853;50.848;4.108;2023-04-08T05:30:22;9.90;99.90
19435;DHT22;9853;50.848;4.108;2023-04-08T05:32:22;9.90;99.90
19435;DHT22;9853;50.848;4.108;2023-04-08T05:34:23;9.90;99.90
19435;DHT22;9853;50.848;4.108;2023-04-08T05:36:24;10.00;99.90
19435;DHT22;9853;50.848;4.108;2023-04-08T05:38:25;9.90;99.90
19435;DHT22;9853;50.848;4.108;2023-04-08T05:40:26;10.00;99.90
19435;DHT22;9853;50.848;4.108;2023-04-08T05:42:27;10.00;99.90
19435;DHT22;9853;50.848;4.108;2023-04-08T05:44:28;10.20;99.90
19435;DHT22;9853;50.848;4.108;2023-04-08T05:46:28;10.10;99.90
19435;DHT22;9853;50.848;4.108;2023-04-08T05:48:29;10.00;99.90
19435;DHT22;9853;50.848;4.108;2023-04-08T05:50:30;10.00;99.90
19435;DHT22;9853;50.848;4.108;2023-04-08T05:52:30;10.00;99.90
19435;DHT22;9853;50.848;4.108;2023-04-08T05:54:31;10.10;99.90
19435;DHT22;9853;50.848;4.108;2023-04-08T05:56:32;10.20;99.90
19435;DHT22;9853;50.848;4.108;2023-04-08T05:58:34;10.20;99.90
19435;DHT22;9853;50.848;4.108;2023-04-08T06:00:35;10.30;99.90
19435;DHT22;9853;50.848;4.108;2023-04-08T06:02:36;10.30;99.90
19435;DHT22;9853;50.848;4.108;2023-04-08T06:04:37;10.30;99.90
19435;DHT22;9853;50.848;4.108;2023-04-08T06:06:37;10.30;99.90
19435;DHT22;9853;50.848;4.108;2023-04-08T06:08:39;10.20;99.90
19435;DHT22;9853;50.848;4.108;2023-04-08T06:10:47;10.10;99.90
19435;DHT22;9853;50.848;4.108;2023-04-08T06:12:48;10.20;99.90
19435;DHT22;9853;50.848;4.108;2023-04-08T06:14:53;10.20;99.90
19435;DHT22;9853;50.848;4.108;2023-04-08T06:16:54;10.30;99.90
19435;DHT22;9853;50.848;4.108;2023-04-08T06:18:56;10.40;99.90
19435;DHT22;9853;50.848;4.108;2023-04-08T06:20:57;10.40;99.90
19435;DHT22;9853;50.848;4.108;2023-04-08T06:22:59;10.30;99.90
19435;DHT22;9853;50.848;4.108;2023-04-08T06:24:59;10.30;99.90
19435;DHT22;9853;50.848;4.108;2023-04-08T06:27:00;10.30;99.90
19435;DHT22;9853;50.848;4.108;2023-04-08T06:29:01;10.30;99.90
19435;DHT22;9853;50.848;4.108;2023-04-08T06:31:02;10.10;99.90
19435;DHT22;9853;50.848;4.108;2023-04-08T06:33:03;10.00;99.90
19435;DHT22;9853;50.848;4.108;2023-04-08T06:35:04;10.00;99.90
19435;DHT22;9853;50.848;4.108;2023-04-08T06:37:05;10.00;99.90
19435;DHT22;9853;50.848;4.108;2023-04-08T06:39:06;10.00;99.90
19435;DHT22;9853;50.848;4.108;2023-04-08T06:41:07;10.20;99.90
19435;DHT22;9853;50.848;4.108;2023-04-08T06:43:08;10.30;99.90
19435;DHT22;9853;50.848;4.108;2023-04-08T06:45:13;10.40;99.90
19435;DHT22;9853;50.848;4.108;2023-04-08T06:47:14;10.60;99.90
19435;DHT22;9853;50.848;4.108;2023-04-08T06:49:16;10.40;99.90
19435;DHT22;9853;50.848;4.108;2023-04-08T06:51:17;10.40;99.90
19435;DHT22;9853;50.848;4.108;2023-04-08T06:53:17;10.40;99.90
19435;DHT22;9853;50.848;4.108;2023-04-08T06:55:18;10.50;99.90
19435;DHT22;9853;50.848;4.108;2023-04-08T06:57:19;10.60;99.90
19435;DHT22;9853;50.848;4.108;2023-04-08T06:59:20;10.70;99.90
19435;DHT22;9853;50.848;4.108;2023-04-08T07:01:21;10.60;99.90
19435;DHT22;9853;50.848;4.108;2023-04-08T07:03:22;10.40;99.90
19435;DHT22;9853;50.848;4.108;2023-04-08T07:05:23;10.50;99.90
19435;DHT22;9853;50.848;4.108;2023-04-08T07:07:23;10.60;99.90
19435;DHT22;9853;50.848;4.108;2023-04-08T07:09:24;10.60;99.90
19435;DHT22;9853;50.848;4.108;2023-04-08T07:11:25;10.60;99.90
19435;DHT22;9853;50.848;4.108;2023-04-08T07:13:26;10.50;99.90
19435;DHT22;9853;50.848;4.108;2023-04-08T07:15:26;10.80;99.90
19435;DHT22;9853;50.848;4.108;2023-04-08T07:17:27;10.80;99.90
19435;DHT22;9853;50.848;4.108;2023-04-08T07:19:28;10.50;99.90
19435;DHT22;9853;50.848;4.108;2023-04-08T07:21:29;10.20;99.90
19435;DHT22;9853;50.848;4.108;2023-04-08T07:23:31;10.30;99.90
19435;DHT22;9853;50.848;4.108;2023-04-08T07:25:32;10.20;99.90
19435;DHT22;9853;50.848;4.108;2023-04-08T07:27:34;10.30;99.90
19435;DHT22;9853;50.848;4.108;2023-04-08T07:29:35;10.20;99.90
19435;DHT22;9853;50.848;4.108;2023-04-08T07:31:36;10.40;99.90
19435;DHT22;9853;50.848;4.108;2023-04-08T07:33:37;10.80;99.90
19435;DHT22;9853;50.848;4.108;2023-04-08T07:35:37;10.70;99.90
19435;DHT22;9853;50.848;4.108;2023-04-08T07:37:38;10.90;99.90
19435;DHT22;9853;50.848;4.108;2023-04-08T07:39:39;11.50;99.90
19435;DHT22;9853;50.848;4.108;2023-04-08T07:41:39;11.50;99.90
19435;DHT22;9853;50.848;4.108;2023-04-08T07:43:40;11.20;99.90
19435;DHT22;9853;50.848;4.108;2023-04-08T07:45:41;11.40;99.90
19435;DHT22;9853;50.848;4.108;2023-04-08T07:47:42;11.50;99.90
19435;DHT22;9853;50.848;4.108;2023-04-08T07:49:45;11.00;99.90
19435;DHT22;9853;50.848;4.108;2023-04-08T07:51:46;11.20;99.90
19435;DHT22;9853;50.848;4.108;2023-04-08T07:53:47;11.30;99.90
19435;DHT22;9853;50.848;4.108;2023-04-08T07:55:47;11.70;99.90
19435;DHT22;9853;50.848;4.108;2023-04-08T07:57:48;12.20;99.90
19435;DHT22;9853;50.848;4.108;2023-04-08T07:59:49;12.20;99.90
19435;DHT22;9853;50.848;4.108;2023-04-08T08:01:50;11.90;99.90
19435;DHT22;9853;50.848;4.108;2023-04-08T08:03:51;11.70;99.90
19435;DHT22;9853;50.848;4.108;2023-04-08T08:05:52;11.50;99.90
19435;DHT22;9853;50.848;4.108;2023-04-08T08:07:52;11.30;99.90
19435;DHT22;9853;50.848;4.108;2023-04-08T08:09:53;11.50;99.90
19435;DHT22;9853;50.848;4.108;2023-04-08T08:11:54;11.10;99.90
19435;DHT22;9853;50.848;4.108;2023-04-08T08:13:54;11.20;99.90
19435;DHT22;9853;50.848;4.108;2023-04-08T08:15:56;11.50;99.90
19435;DHT22;9853;50.848;4.108;2023-04-08T08:17:57;11.50;99.90
19435;DHT22;9853;50.848;4.108;2023-04-08T08:19:58;11.50;99.90
19435;DHT22;9853;50.848;4.108;2023-04-08T08:21:59;12.00;99.90
19435;DHT22;9853;50.848;4.108;2023-04-08T08:23:59;11.80;99.90
19435;DHT22;9853;50.848;4.108;2023-04-08T08:26:01;11.90;99.90
19435;DHT22;9853;50.848;4.108;2023-04-08T08:28:01;12.40;99.90
19435;DHT22;9853;50.848;4.108;2023-04-08T08:30:03;11.90;99.90
19435;DHT22;9853;50.848;4.108;2023-04-08T08:32:04;11.70;99.90
19435;DHT22;9853;50.848;4.108;2023-04-08T08:34:04;12.30;99.90
19435;DHT22;9853;50.848;4.108;2023-04-08T08:36:05;12.70;99.90
19435;DHT22;9853;50.848;4.108;2023-04-08T08:38:06;13.00;99.90
19435;DHT22;9853;50.848;4.108;2023-04-08T08:40:08;13.00;99.90
19435;DHT22;9853;50.848;4.108;2023-04-08T08:42:20;13.50;99.90
19435;DHT22;9853;50.848;4.108;2023-04-08T08:44:22;13.10;99.90
19435;DHT22;9853;50.848;4.108;2023-04-08T08:46:22;13.00;99.90
19435;DHT22;9853;50.848;4.108;2023-04-08T08:48:23;13.20;99.90
19435;DHT22;9853;50.848;4.108;2023-04-08T08:50:24;13.00;99.90
19435;DHT22;9853;50.848;4.108;2023-04-08T08:52:25;12.70;99.90
19435;DHT22;9853;50.848;4.108;2023-04-08T08:54:26;13.10;99.90
19435;DHT22;9853;50.848;4.108;2023-04-08T08:56:27;12.90;99.90
19435;DHT22;9853;50.848;4.108;2023-04-08T08:58:28;12.60;99.90
19435;DHT22;9853;50.848;4.108;2023-04-08T09:00:39;12.50;99.90
19435;DHT22;9853;50.848;4.108;2023-04-08T09:02:42;12.40;99.90
19435;DHT22;9853;50.848;4.108;2023-04-08T09:04:58;12.50;99.90
19435;DHT22;9853;50.848;4.108;2023-04-08T09:07:10;12.00;99.90
19435;DHT22;9853;50.848;4.108;2023-04-08T09:09:13;12.20;99.90
19435;DHT22;9853;50.848;4.108;2023-04-08T09:11:15;12.50;99.90
19435;DHT22;9853;50.848;4.108;2023-04-08T09:13:16;12.70;99.90
19435;DHT22;9853;50.848;4.108;2023-04-08T09:15:17;12.90;99.90
19435;DHT22;9853;50.848;4.108;2023-04-08T09:17:34;13.00;99.90
19435;DHT22;9853;50.848;4.108;2023-04-08T09:19:35;12.90;99.90
19435;DHT22;9853;50.848;4.108;2023-04-08T09:21:37;12.50;99.90
19435;DHT22;9853;50.848;4.108;2023-04-08T09:25:45;12.50;99.90
19435;DHT22;9853;50.848;4.108;2023-04-08T09:27:46;12.10;99.90
19435;DHT22;9853;50.848;4.108;2023-04-08T09:29:46;12.10;99.90
19435;DHT22;9853;50.848;4.108;2023-04-08T09:31:52;12.00;99.90
19435;DHT22;9853;50.848;4.108;2023-04-08T09:33:59;12.00;99.90
19435;DHT22;9853;50.848;4.108;2023-04-08T09:36:00;12.10;99.90
19435;DHT22;9853;50.848;4.108;2023-04-08T09:38:00;12.20;99.90
19435;DHT22;9853;50.848;4.108;2023-04-08T09:40:02;12.10;99.90
19435;DHT22;9853;50.848;4.108;2023-04-08T09:42:05;12.30;99.90
19435;DHT22;9853;50.848;4.108;2023-04-08T09:44:09;12.40;99.90
19435;DHT22;9853;50.848;4.108;2023-04-08T09:46:10;12.40;99.90
19435;DHT22;9853;50.848;4.108;2023-04-08T09:48:16;12.70;99.90
19435;DHT22;9853;50.848;4.108;2023-04-08T09:50:26;12.50;99.90
19435;DHT22;9853;50.848;4.108;2023-04-08T09:52:32;12.20;99.90
19435;DHT22;9853;50.848;4.108;2023-04-08T09:55:09;12.50;99.90
19435;DHT22;9853;50.848;4.108;2023-04-08T09:57:22;12.70;99.90
19435;DHT22;9853;50.848;4.108;2023-04-08T09:59:26;13.10;99.90
19435;DHT22;9853;50.848;4.108;2023-04-08T10:01:37;13.30;99.90
19435;DHT22;9853;50.848;4.108;2023-04-08T10:03:47;13.30;99.90
19435;DHT22;9853;50.848;4.108;2023-04-08T10:05:49;12.90;99.90
19435;DHT22;9853;50.848;4.108;2023-04-08T10:07:52;12.80;99.90
19435;DHT22;9853;50.848;4.108;2023-04-08T10:09:56;12.80;99.90
19435;DHT22;9853;50.848;4.108;2023-04-08T10:11:57;13.00;99.90
19435;DHT22;9853;50.848;4.108;2023-04-08T10:13:58;13.10;99.90
19435;DHT22;9853;50.848;4.108;2023-04-08T10:16:24;13.00;99.90
19435;DHT22;9853;50.848;4.108;2023-04-08T10:18:31;12.60;99.90
19435;DHT22;9853;50.848;4.108;2023-04-08T10:22:45;12.80;99.90
19435;DHT22;9853;50.848;4.108;2023-04-08T10:27:38;13.00;99.90
19435;DHT22;9853;50.848;4.108;2023-04-08T10:29:42;12.60;99.90
19435;DHT22;9853;50.848;4.108;2023-04-08T10:31:47;12.90;99.90
19435;DHT22;9853;50.848;4.108;2023-04-08T10:33:49;13.10;99.90
19435;DHT22;9853;50.848;4.108;2023-04-08T10:35:54;13.20;99.90
19435;DHT22;9853;50.848;4.108;2023-04-08T10:37:55;13.00;99.90
19435;DHT22;9853;50.848;4.108;2023-04-08T10:39:56;13.40;99.90
19435;DHT22;9853;50.848;4.108;2023-04-08T10:42:00;13.50;99.90
19435;DHT22;9853;50.848;4.108;2023-04-08T10:44:04;13.40;99.90
19435;DHT22;9853;50.848;4.108;2023-04-08T10:46:14;13.20;99.90
19435;DHT22;9853;50.848;4.108;2023-04-08T10:48:23;13.00;99.90
19435;DHT22;9853;50.848;4.108;2023-04-08T10:50:24;13.00;99.90
19435;DHT22;9853;50.848;4.108;2023-04-08T10:52:25;13.20;99.90
19435;DHT22;9853;50.848;4.108;2023-04-08T10:54:27;13.30;99.90
19435;DHT22;9853;50.848;4.108;2023-04-08T10:56:28;13.50;99.90
19435;DHT22;9853;50.848;4.108;2023-04-08T10:58:29;13.30;99.90
19435;DHT22;9853;50.848;4.108;2023-04-08T11:00:37;12.80;99.90
19435;DHT22;9853;50.848;4.108;2023-04-08T11:02:38;12.90;99.90
19435;DHT22;9853;50.848;4.108;2023-04-08T11:04:41;13.40;99.90
19435;DHT22;9853;50.848;4.108;2023-04-08T11:06:43;13.40;99.90
19435;DHT22;9853;50.848;4.108;2023-04-08T11:08:44;13.10;99.90
19435;DHT22;9853;50.848;4.108;2023-04-08T11:10:46;13.40;99.90
19435;DHT22;9853;50.848;4.108;2023-04-08T11:12:47;13.50;99.90
19435;DHT22;9853;50.848;4.108;2023-04-08T11:14:49;13.50;99.90
19435;DHT22;9853;50.848;4.108;2023-04-08T11:16:52;13.40;99.90
19435;DHT22;9853;50.848;4.108;2023-04-08T11:18:53;13.70;99.90
19435;DHT22;9853;50.848;4.108;2023-04-08T11:20:55;14.10;99.90
19435;DHT22;9853;50.848;4.108;2023-04-08T11:22:56;13.30;99.90
19435;DHT22;9853;50.848;4.108;2023-04-08T11:24:57;13.50;99.90
19435;DHT22;9853;50.848;4.108;2023-04-08T11:26:58;13.70;99.90
19435;DHT22;9853;50.848;4.108;2023-04-08T11:28:59;12.90;99.90
19435;DHT22;9853;50.848;4.108;2023-04-08T11:31:01;12.60;99.90
19435;DHT22;9853;50.848;4.108;2023-04-08T11:33:06;13.20;99.90
19435;DHT22;9853;50.848;4.108;2023-04-08T11:35:07;13.50;99.90
19435;DHT22;9853;50.848;4.108;2023-04-08T11:37:08;13.60;99.90
19435;DHT22;9853;50.848;4.108;2023-04-08T11:39:09;13.60;99.90
19435;DHT22;9853;50.848;4.108;2023-04-08T11:41:11;13.60;99.90
19435;DHT22;9853;50.848;4.108;2023-04-08T11:43:12;13.80;99.90
19435;DHT22;9853;50.848;4.108;2023-04-08T11:45:18;13.80;99.90
19435;DHT22;9853;50.848;4.108;2023-04-08T11:47:28;13.80;99.90
19435;DHT22;9853;50.848;4.108;2023-04-08T11:49:43;13.70;99.90
19435;DHT22;9853;50.848;4.108;2023-04-08T11:51:57;13.60;99.90
19435;DHT22;9853;50.848;4.108;2023-04-08T11:53:59;13.40;99.90
19435;DHT22;9853;50.848;4.108;2023-04-08T11:56:18;13.40;99.90
19435;DHT22;9853;50.848;4.108;2023-04-08T11:58:19;13.40;99.90
19435;DHT22;9853;50.848;4.108;2023-04-08T12:00:21;13.30;99.90
19435;DHT22;9853;50.848;4.108;2023-04-08T12:02:22;13.40;99.90
19435;DHT22;9853;50.848;4.108;2023-04-08T12:04:22;13.40;99.90
19435;DHT22;9853;50.848;4.108;2023-04-08T12:06:23;13.20;99.90
19435;DHT22;9853;50.848;4.108;2023-04-08T12:08:26;12.80;99.90
19435;DHT22;9853;50.848;4.108;2023-04-08T12:10:28;13.20;99.90
19435;DHT22;9853;50.848;4.108;2023-04-08T12:12:28;13.90;99.90
19435;DHT22;9853;50.848;4.108;2023-04-08T12:14:29;13.80;99.90
19435;DHT22;9853;50.848;4.108;2023-04-08T12:16:30;14.00;99.90
19435;DHT22;9853;50.848;4.108;2023-04-08T12:18:31;14.30;99.90
19435;DHT22;9853;50.848;4.108;2023-04-08T12:20:31;14.30;99.90
19435;DHT22;9853;50.848;4.108;2023-04-08T12:22:32;14.30;99.90
19435;DHT22;9853;50.848;4.108;2023-04-08T12:24:33;14.70;99.90
19435;DHT22;9853;50.848;4.108;2023-04-08T12:26:33;14.60;99.90
19435;DHT22;9853;50.848;4.108;2023-04-08T12:28:34;14.50;99.90
19435;DHT22;9853;50.848;4.108;2023-04-08T12:30:35;14.40;99.90
19435;DHT22;9853;50.848;4.108;2023-04-08T12:32:36;14.80;99.90
19435;DHT22;9853;50.848;4.108;2023-04-08T12:34:37;15.00;99.90
19435;DHT22;9853;50.848;4.108;2023-04-08T12:36:38;15.50;99.90
19435;DHT22;9853;50.848;4.108;2023-04-08T12:38:39;15.10;99.90
19435;DHT22;9853;50.848;4.108;2023-04-08T12:40:39;14.80;99.90
19435;DHT22;9853;50.848;4.108;2023-04-08T12:42:40;14.50;99.90
19435;DHT22;9853;50.848;4.108;2023-04-08T12:44:42;14.50;99.90
19435;DHT22;9853;50.848;4.108;2023-04-08T12:46:42;14.90;99.90
19435;DHT22;9853;50.848;4.108;2023-04-08T12:48:43;15.30;99.90
19435;DHT22;9853;50.848;4.108;2023-04-08T12:50:44;15.30;99.90
19435;DHT22;9853;50.848;4.108;2023-04-08T12:52:45;15.00;99.90
19435;DHT22;9853;50.848;4.108;2023-04-08T12:54:46;14.90;99.90
19435;DHT22;9853;50.848;4.108;2023-04-08T12:56:47;14.80;99.90
19435;DHT22;9853;50.848;4.108;2023-04-08T12:58:48;15.00;99.90
19435;DHT22;9853;50.848;4.108;2023-04-08T13:00:48;15.30;99.90
19435;DHT22;9853;50.848;4.108;2023-04-08T13:02:49;15.10;99.90
19435;DHT22;9853;50.848;4.108;2023-04-08T13:04:50;15.20;99.90
19435;DHT22;9853;50.848;4.108;2023-04-08T13:06:52;15.80;99.90
19435;DHT22;9853;50.848;4.108;2023-04-08T13:08:53;15.30;99.90
19435;DHT22;9853;50.848;4.108;2023-04-08T13:10:54;15.30;99.90
19435;DHT22;9853;50.848;4.108;2023-04-08T13:12:55;15.80;99.90
19435;DHT22;9853;50.848;4.108;2023-04-08T13:14:56;15.60;99.90